sensor_id;sensor_type;location;lat;lon;timestamp;P1;durP1;ratioP1;P2;durP2;ratioP2
22363;SDS011;11349;53.412;-1.328;2024-02-15T00:00:21;4.90;;;2.92;;
22363;SDS011;11349;53.412;-1.328;2024-02-15T00:02:47;6.20;;;2.90;;
22363;SDS011;11349;53.412;-1.328;2024-02-15T00:05:14;5.03;;;3.28;;
22363;SDS011;11349;53.412;-1.328;2024-02-15T00:07:41;5.05;;;3.40;;
22363;SDS011;11349;53.412;-1.328;2024-02-15T00:10:07;6.53;;;3.63;;
22363;SDS011;11349;53.412;-1.328;2024-02-15T00:12:33;6.68;;;3.50;;
22363;SDS011;11349;53.412;-1.328;2024-02-15T00:14:59;7.63;;;3.92;;
22363;SDS011;11349;53.412;-1.328;2024-02-15T00:17:26;6.07;;;3.50;;
22363;SDS011;11349;53.412;-1.328;2024-02-15T00:19:54;7.68;;;4.18;;
22363;SDS011;11349;53.412;-1.328;2024-02-15T00:22:20;6.05;;;3.22;;
22363;SDS011;11349;53.412;-1.328;2024-02-15T00:24:46;11.07;;;3.45;;
22363;SDS011;11349;53.412;-1.328;2024-02-15T00:27:14;8.43;;;3.05;;
22363;SDS011;11349;53.412;-1.328;2024-02-15T00:29:40;7.15;;;3.20;;
22363;SDS011;11349;53.412;-1.328;2024-02-15T00:32:08;5.85;;;3.47;;
22363;SDS011;11349;53.412;-1.328;2024-02-15T00:34:35;5.65;;;3.15;;
22363;SDS011;11349;53.412;-1.328;2024-02-15T00:37:04;5.32;;;3.00;;
22363;SDS011;11349;53.412;-1.328;2024-02-15T00:39:30;6.68;;;3.20;;
22363;SDS011;11349;53.412;-1.328;2024-02-15T00:41:56;7.07;;;2.97;;
22363;SDS011;11349;53.412;-1.328;2024-02-15T00:44:23;6.78;;;3.50;;
22363;SDS011;11349;53.412;-1.328;2024-02-15T00:46:51;6.25;;;3.50;;
22363;SDS011;11349;53.412;-1.328;2024-02-15T00:49:17;7.10;;;3.85;;
22363;SDS011;11349;53.412;-1.328;2024-02-15T00:51:45;5.82;;;3.33;;
22363;SDS011;11349;53.412;-1.328;2024-02-15T00:54:12;5.90;;;3.20;;
22363;SDS011;11349;53.412;-1.328;2024-02-15T00:56:37;7.68;;;3.45;;
22363;SDS011;11349;53.412;-1.328;2024-02-15T00:59:03;6.57;;;3.30;;
22363;SDS011;11349;53.412;-1.328;2024-02-15T01:01:30;7.78;;;4.25;;
22363;SDS011;11349;53.412;-1.328;2024-02-15T01:03:56;9.77;;;4.10;;
22363;SDS011;11349;53.412;-1.328;2024-02-15T01:06:22;9.02;;;4.75;;
22363;SDS011;11349;53.412;-1.328;2024-02-15T01:08:48;10.00;;;4.53;;
22363;SDS011;11349;53.412;-1.328;2024-02-15T01:11:14;11.13;;;3.97;;
22363;SDS011;11349;53.412;-1.328;2024-02-15T01:13:39;7.05;;;4.00;;
22363;SDS011;11349;53.412;-1.328;2024-02-15T01:16:06;7.18;;;4.30;;
22363;SDS011;11349;53.412;-1.328;2024-02-15T01:18:32;9.70;;;4.30;;
22363;SDS011;11349;53.412;-1.328;2024-02-15T01:20:58;8.30;;;4.25;;
22363;SDS011;11349;53.412;-1.328;2024-02-15T01:23:24;9.02;;;4.53;;
22363;SDS011;11349;53.412;-1.328;2024-02-15T01:25:50;7.68;;;3.80;;
22363;SDS011;11349;53.412;-1.328;2024-02-15T01:28:17;8.35;;;3.80;;
22363;SDS011;11349;53.412;-1.328;2024-02-15T01:30:43;6.95;;;4.25;;
22363;SDS011;11349;53.412;-1.328;2024-02-15T01:33:09;5.40;;;3.70;;
22363;SDS011;11349;53.412;-1.328;2024-02-15T01:35:36;8.18;;;4.43;;
22363;SDS011;11349;53.412;-1.328;2024-02-15T01:38:02;7.65;;;3.80;;
22363;SDS011;11349;53.412;-1.328;2024-02-15T01:40:29;7.25;;;4.35;;
22363;SDS011;11349;53.412;-1.328;2024-02-15T01:42:54;7.90;;;4.47;;
22363;SDS011;11349;53.412;-1.328;2024-02-15T01:45:20;5.90;;;3.38;;
22363;SDS011;11349;53.412;-1.328;2024-02-15T01:47:49;6.35;;;3.50;;
22363;SDS011;11349;53.412;-1.328;2024-02-15T01:50:15;9.32;;;3.80;;
22363;SDS011;11349;53.412;-1.328;2024-02-15T01:52:42;5.97;;;3.38;;
22363;SDS011;11349;53.412;-1.328;2024-02-15T01:55:12;6.68;;;3.10;;
22363;SDS011;11349;53.412;-1.328;2024-02-15T01:57:45;7.82;;;3.50;;
22363;SDS011;11349;53.412;-1.328;2024-02-15T02:00:29;5.93;;;3.70;;
22363;SDS011;11349;53.412;-1.328;2024-02-15T02:02:56;8.07;;;3.67;;
22363;SDS011;11349;53.412;-1.328;2024-02-15T02:05:27;5.82;;;3.88;;
22363;SDS011;11349;53.412;-1.328;2024-02-15T02:07:55;6.18;;;3.25;;
22363;SDS011;11349;53.412;-1.328;2024-02-15T02:10:24;6.30;;;3.95;;
22363;SDS011;11349;53.412;-1.328;2024-02-15T02:12:52;8.02;;;3.63;;
22363;SDS011;11349;53.412;-1.328;2024-02-15T02:15:18;7.70;;;4.20;;
22363;SDS011;11349;53.412;-1.328;2024-02-15T02:17:48;8.70;;;4.22;;
22363;SDS011;11349;53.412;-1.328;2024-02-15T02:20:16;6.95;;;3.88;;
22363;SDS011;11349;53.412;-1.328;2024-02-15T02:22:41;9.23;;;4.15;;
22363;SDS011;11349;53.412;-1.328;2024-02-15T02:25:11;6.22;;;4.00;;
22363;SDS011;11349;53.412;-1.328;2024-02-15T02:27:38;9.52;;;5.35;;
22363;SDS011;11349;53.412;-1.328;2024-02-15T02:30:05;8.15;;;4.57;;
22363;SDS011;11349;53.412;-1.328;2024-02-15T02:32:40;6.22;;;3.53;;
22363;SDS011;11349;53.412;-1.328;2024-02-15T02:35:06;7.03;;;4.00;;
22363;SDS011;11349;53.412;-1.328;2024-02-15T02:37:33;6.88;;;4.07;;
22363;SDS011;11349;53.412;-1.328;2024-02-15T02:40:02;6.25;;;3.95;;
22363;SDS011;11349;53.412;-1.328;2024-02-15T02:42:29;7.95;;;4.00;;
22363;SDS011;11349;53.412;-1.328;2024-02-15T02:44:54;6.50;;;3.53;;
22363;SDS011;11349;53.412;-1.328;2024-02-15T02:47:20;4.65;;;3.83;;
22363;SDS011;11349;53.412;-1.328;2024-02-15T02:49:47;7.18;;;4.22;;
22363;SDS011;11349;53.412;-1.328;2024-02-15T02:52:12;7.75;;;3.92;;
22363;SDS011;11349;53.412;-1.328;2024-02-15T02:54:38;4.90;;;3.58;;
22363;SDS011;11349;53.412;-1.328;2024-02-15T02:57:04;6.35;;;4.00;;
22363;SDS011;11349;53.412;-1.328;2024-02-15T02:59:31;6.55;;;4.05;;
22363;SDS011;11349;53.412;-1.328;2024-02-15T03:01:58;5.05;;;3.65;;
22363;SDS011;11349;53.412;-1.328;2024-02-15T03:04:24;4.95;;;3.20;;
22363;SDS011;11349;53.412;-1.328;2024-02-15T03:06:50;4.60;;;3.47;;
22363;SDS011;11349;53.412;-1.328;2024-02-15T03:09:16;6.68;;;4.00;;
22363;SDS011;11349;53.412;-1.328;2024-02-15T03:11:42;5.20;;;3.50;;
22363;SDS011;11349;53.412;-1.328;2024-02-15T03:14:07;6.95;;;3.83;;
22363;SDS011;11349;53.412;-1.328;2024-02-15T03:16:34;5.93;;;3.78;;
22363;SDS011;11349;53.412;-1.328;2024-02-15T03:19:00;8.20;;;4.70;;
22363;SDS011;11349;53.412;-1.328;2024-02-15T03:21:27;6.03;;;3.95;;
22363;SDS011;11349;53.412;-1.328;2024-02-15T03:23:53;5.25;;;3.50;;
22363;SDS011;11349;53.412;-1.328;2024-02-15T03:26:28;5.32;;;3.78;;
22363;SDS011;11349;53.412;-1.328;2024-02-15T03:29:05;5.43;;;3.38;;
22363;SDS011;11349;53.412;-1.328;2024-02-15T03:31:33;5.18;;;3.55;;
22363;SDS011;11349;53.412;-1.328;2024-02-15T03:34:02;5.15;;;3.47;;
22363;SDS011;11349;53.412;-1.328;2024-02-15T03:36:30;5.68;;;3.42;;
22363;SDS011;11349;53.412;-1.328;2024-02-15T03:38:56;6.18;;;3.58;;
22363;SDS011;11349;53.412;-1.328;2024-02-15T03:41:22;4.85;;;3.50;;
22363;SDS011;11349;53.412;-1.328;2024-02-15T03:43:48;5.85;;;3.38;;
22363;SDS011;11349;53.412;-1.328;2024-02-15T03:46:16;7.30;;;3.85;;
22363;SDS011;11349;53.412;-1.328;2024-02-15T03:48:42;6.40;;;3.45;;
22363;SDS011;11349;53.412;-1.328;2024-02-15T03:51:15;6.53;;;4.28;;
22363;SDS011;11349;53.412;-1.328;2024-02-15T03:53:43;6.68;;;4.03;;
22363;SDS011;11349;53.412;-1.328;2024-02-15T03:56:09;7.50;;;3.95;;
22363;SDS011;11349;53.412;-1.328;2024-02-15T03:58:35;5.50;;;3.75;;
22363;SDS011;11349;53.412;-1.328;2024-02-15T04:01:03;6.07;;;3.80;;
22363;SDS011;11349;53.412;-1.328;2024-02-15T04:03:35;5.70;;;4.00;;
22363;SDS011;11349;53.412;-1.328;2024-02-15T04:06:01;4.65;;;3.47;;
22363;SDS011;11349;53.412;-1.328;2024-02-15T04:08:27;4.90;;;3.65;;
22363;SDS011;11349;53.412;-1.328;2024-02-15T04:10:53;6.68;;;3.60;;
22363;SDS011;11349;53.412;-1.328;2024-02-15T04:13:19;7.45;;;3.80;;
22363;SDS011;11349;53.412;-1.328;2024-02-15T04:15:44;5.25;;;3.65;;
22363;SDS011;11349;53.412;-1.328;2024-02-15T04:18:12;5.85;;;3.70;;
22363;SDS011;11349;53.412;-1.328;2024-02-15T04:20:39;5.10;;;3.75;;
22363;SDS011;11349;53.412;-1.328;2024-02-15T04:23:10;5.38;;;3.70;;
22363;SDS011;11349;53.412;-1.328;2024-02-15T04:25:36;5.55;;;3.65;;
22363;SDS011;11349;53.412;-1.328;2024-02-15T04:28:02;7.13;;;4.03;;
22363;SDS011;11349;53.412;-1.328;2024-02-15T04:30:29;7.22;;;3.78;;
22363;SDS011;11349;53.412;-1.328;2024-02-15T04:32:55;4.90;;;3.53;;
22363;SDS011;11349;53.412;-1.328;2024-02-15T04:35:21;5.00;;;3.55;;
22363;SDS011;11349;53.412;-1.328;2024-02-15T04:37:47;5.70;;;3.08;;
22363;SDS011;11349;53.412;-1.328;2024-02-15T04:40:14;6.65;;;4.07;;
22363;SDS011;11349;53.412;-1.328;2024-02-15T04:42:40;6.20;;;3.85;;
22363;SDS011;11349;53.412;-1.328;2024-02-15T04:45:09;6.38;;;3.42;;
22363;SDS011;11349;53.412;-1.328;2024-02-15T04:47:37;7.95;;;3.45;;
22363;SDS011;11349;53.412;-1.328;2024-02-15T04:50:05;7.50;;;3.80;;
22363;SDS011;11349;53.412;-1.328;2024-02-15T04:52:32;4.70;;;3.83;;
22363;SDS011;11349;53.412;-1.328;2024-02-15T04:54:57;5.90;;;4.20;;
22363;SDS011;11349;53.412;-1.328;2024-02-15T04:57:24;5.32;;;4.03;;
22363;SDS011;11349;53.412;-1.328;2024-02-15T04:59:53;4.85;;;3.92;;
22363;SDS011;11349;53.412;-1.328;2024-02-15T05:02:19;6.60;;;3.90;;
22363;SDS011;11349;53.412;-1.328;2024-02-15T05:04:45;6.00;;;4.05;;
22363;SDS011;11349;53.412;-1.328;2024-02-15T05:07:10;5.45;;;3.97;;
22363;SDS011;11349;53.412;-1.328;2024-02-15T05:09:36;5.13;;;4.00;;
22363;SDS011;11349;53.412;-1.328;2024-02-15T05:12:02;5.60;;;4.15;;
22363;SDS011;11349;53.412;-1.328;2024-02-15T05:14:29;5.82;;;3.65;;
22363;SDS011;11349;53.412;-1.328;2024-02-15T05:16:54;5.13;;;3.90;;
22363;SDS011;11349;53.412;-1.328;2024-02-15T05:19:20;5.10;;;3.60;;
22363;SDS011;11349;53.412;-1.328;2024-02-15T05:21:46;5.90;;;4.22;;
22363;SDS011;11349;53.412;-1.328;2024-02-15T05:24:15;4.45;;;3.08;;
22363;SDS011;11349;53.412;-1.328;2024-02-15T05:26:44;5.68;;;3.40;;
22363;SDS011;11349;53.412;-1.328;2024-02-15T05:29:17;4.85;;;3.28;;
22363;SDS011;11349;53.412;-1.328;2024-02-15T05:31:45;6.03;;;3.75;;
22363;SDS011;11349;53.412;-1.328;2024-02-15T05:34:11;5.70;;;3.38;;
22363;SDS011;11349;53.412;-1.328;2024-02-15T05:36:38;5.78;;;3.55;;
22363;SDS011;11349;53.412;-1.328;2024-02-15T05:39:04;5.15;;;3.35;;
22363;SDS011;11349;53.412;-1.328;2024-02-15T05:41:30;4.50;;;3.08;;
22363;SDS011;11349;53.412;-1.328;2024-02-15T05:43:59;5.97;;;3.15;;
22363;SDS011;11349;53.412;-1.328;2024-02-15T05:46:25;4.82;;;3.22;;
22363;SDS011;11349;53.412;-1.328;2024-02-15T05:48:53;5.63;;;3.40;;
22363;SDS011;11349;53.412;-1.328;2024-02-15T05:51:18;4.15;;;2.83;;
22363;SDS011;11349;53.412;-1.328;2024-02-15T05:53:44;5.53;;;3.20;;
22363;SDS011;11349;53.412;-1.328;2024-02-15T05:56:10;3.58;;;2.67;;
22363;SDS011;11349;53.412;-1.328;2024-02-15T05:58:37;6.75;;;3.25;;
22363;SDS011;11349;53.412;-1.328;2024-02-15T06:01:05;5.85;;;3.47;;
22363;SDS011;11349;53.412;-1.328;2024-02-15T06:03:32;4.72;;;3.35;;
22363;SDS011;11349;53.412;-1.328;2024-02-15T06:05:59;4.70;;;3.40;;
22363;SDS011;11349;53.412;-1.328;2024-02-15T06:08:29;5.65;;;3.13;;
22363;SDS011;11349;53.412;-1.328;2024-02-15T06:10:55;6.07;;;3.30;;
22363;SDS011;11349;53.412;-1.328;2024-02-15T06:13:22;4.60;;;3.30;;
22363;SDS011;11349;53.412;-1.328;2024-02-15T06:15:48;5.82;;;3.05;;
22363;SDS011;11349;53.412;-1.328;2024-02-15T06:18:25;6.13;;;3.03;;
22363;SDS011;11349;53.412;-1.328;2024-02-15T06:20:56;6.70;;;3.08;;
22363;SDS011;11349;53.412;-1.328;2024-02-15T06:23:22;4.95;;;2.88;;
22363;SDS011;11349;53.412;-1.328;2024-02-15T06:25:50;4.53;;;2.80;;
22363;SDS011;11349;53.412;-1.328;2024-02-15T06:28:21;5.85;;;2.67;;
22363;SDS011;11349;53.412;-1.328;2024-02-15T06:31:07;5.32;;;2.90;;
22363;SDS011;11349;53.412;-1.328;2024-02-15T06:33:51;6.13;;;3.47;;
22363;SDS011;11349;53.412;-1.328;2024-02-15T06:36:39;5.38;;;3.30;;
22363;SDS011;11349;53.412;-1.328;2024-02-15T06:39:30;5.10;;;3.20;;
22363;SDS011;11349;53.412;-1.328;2024-02-15T06:42:10;4.85;;;3.75;;
22363;SDS011;11349;53.412;-1.328;2024-02-15T06:44:39;5.70;;;3.95;;
22363;SDS011;11349;53.412;-1.328;2024-02-15T06:47:08;6.40;;;3.97;;
22363;SDS011;11349;53.412;-1.328;2024-02-15T06:49:36;5.18;;;4.20;;
22363;SDS011;11349;53.412;-1.328;2024-02-15T06:52:05;5.30;;;4.35;;
22363;SDS011;11349;53.412;-1.328;2024-02-15T06:54:37;5.43;;;3.58;;
22363;SDS011;11349;53.412;-1.328;2024-02-15T06:57:07;4.85;;;3.83;;
22363;SDS011;11349;53.412;-1.328;2024-02-15T06:59:33;5.47;;;3.20;;
22363;SDS011;11349;53.412;-1.328;2024-02-15T07:02:03;5.57;;;3.60;;
22363;SDS011;11349;53.412;-1.328;2024-02-15T07:04:32;5.13;;;3.55;;
22363;SDS011;11349;53.412;-1.328;2024-02-15T07:06:58;6.32;;;3.70;;
22363;SDS011;11349;53.412;-1.328;2024-02-15T07:09:24;4.18;;;3.10;;
22363;SDS011;11349;53.412;-1.328;2024-02-15T07:11:51;5.80;;;3.45;;
22363;SDS011;11349;53.412;-1.328;2024-02-15T07:14:17;4.18;;;3.05;;
22363;SDS011;11349;53.412;-1.328;2024-02-15T07:16:46;5.25;;;3.15;;
22363;SDS011;11349;53.412;-1.328;2024-02-15T07:19:13;4.65;;;3.17;;
22363;SDS011;11349;53.412;-1.328;2024-02-15T07:21:39;3.88;;;2.83;;
22363;SDS011;11349;53.412;-1.328;2024-02-15T07:24:05;3.53;;;2.70;;
22363;SDS011;11349;53.412;-1.328;2024-02-15T07:26:31;5.45;;;2.65;;
22363;SDS011;11349;53.412;-1.328;2024-02-15T07:28:58;4.47;;;3.03;;
22363;SDS011;11349;53.412;-1.328;2024-02-15T07:31:27;6.28;;;2.80;;
22363;SDS011;11349;53.412;-1.328;2024-02-15T07:33:54;6.00;;;3.15;;
22363;SDS011;11349;53.412;-1.328;2024-02-15T07:36:20;5.38;;;3.30;;
22363;SDS011;11349;53.412;-1.328;2024-02-15T07:38:52;4.60;;;3.13;;
22363;SDS011;11349;53.412;-1.328;2024-02-15T07:41:20;4.95;;;3.22;;
22363;SDS011;11349;53.412;-1.328;2024-02-15T07:43:47;4.32;;;2.95;;
22363;SDS011;11349;53.412;-1.328;2024-02-15T07:46:14;4.43;;;2.60;;
22363;SDS011;11349;53.412;-1.328;2024-02-15T07:48:41;5.53;;;3.33;;
22363;SDS011;11349;53.412;-1.328;2024-02-15T07:51:11;4.90;;;3.38;;
22363;SDS011;11349;53.412;-1.328;2024-02-15T07:53:38;4.60;;;3.08;;
22363;SDS011;11349;53.412;-1.328;2024-02-15T07:56:05;6.10;;;3.15;;
22363;SDS011;11349;53.412;-1.328;2024-02-15T07:58:31;3.83;;;3.03;;
22363;SDS011;11349;53.412;-1.328;2024-02-15T08:00:56;5.50;;;3.90;;
22363;SDS011;11349;53.412;-1.328;2024-02-15T08:03:24;5.38;;;3.38;;
22363;SDS011;11349;53.412;-1.328;2024-02-15T08:05:51;5.90;;;3.35;;
22363;SDS011;11349;53.412;-1.328;2024-02-15T08:08:17;4.35;;;3.30;;
22363;SDS011;11349;53.412;-1.328;2024-02-15T08:10:43;6.40;;;4.50;;
22363;SDS011;11349;53.412;-1.328;2024-02-15T08:13:10;7.25;;;3.63;;
22363;SDS011;11349;53.412;-1.328;2024-02-15T08:15:35;5.60;;;3.67;;
22363;SDS011;11349;53.412;-1.328;2024-02-15T08:18:01;5.57;;;3.63;;
22363;SDS011;11349;53.412;-1.328;2024-02-15T08:20:30;5.05;;;3.50;;
22363;SDS011;11349;53.412;-1.328;2024-02-15T08:22:56;4.32;;;3.38;;
22363;SDS011;11349;53.412;-1.328;2024-02-15T08:25:24;5.88;;;4.22;;
22363;SDS011;11349;53.412;-1.328;2024-02-15T08:27:50;4.72;;;3.70;;
22363;SDS011;11349;53.412;-1.328;2024-02-15T08:30:19;5.70;;;4.50;;
22363;SDS011;11349;53.412;-1.328;2024-02-15T08:32:45;5.50;;;3.63;;
22363;SDS011;11349;53.412;-1.328;2024-02-15T08:35:12;6.57;;;4.68;;
22363;SDS011;11349;53.412;-1.328;2024-02-15T08:37:39;7.15;;;4.65;;
22363;SDS011;11349;53.412;-1.328;2024-02-15T08:40:07;6.57;;;4.35;;
22363;SDS011;11349;53.412;-1.328;2024-02-15T08:42:43;6.60;;;4.40;;
22363;SDS011;11349;53.412;-1.328;2024-02-15T08:45:09;6.05;;;4.07;;
22363;SDS011;11349;53.412;-1.328;2024-02-15T08:47:39;5.93;;;4.15;;
22363;SDS011;11349;53.412;-1.328;2024-02-15T08:50:06;6.03;;;4.63;;
22363;SDS011;11349;53.412;-1.328;2024-02-15T08:52:36;5.13;;;4.35;;
22363;SDS011;11349;53.412;-1.328;2024-02-15T08:55:06;6.38;;;4.10;;
22363;SDS011;11349;53.412;-1.328;2024-02-15T08:57:36;6.78;;;4.22;;
22363;SDS011;11349;53.412;-1.328;2024-02-15T09:00:03;6.85;;;3.92;;
22363;SDS011;11349;53.412;-1.328;2024-02-15T09:02:44;5.78;;;4.28;;
22363;SDS011;11349;53.412;-1.328;2024-02-15T09:05:14;6.88;;;4.15;;
22363;SDS011;11349;53.412;-1.328;2024-02-15T09:07:43;5.85;;;4.22;;
22363;SDS011;11349;53.412;-1.328;2024-02-15T09:10:12;8.45;;;4.65;;
22363;SDS011;11349;53.412;-1.328;2024-02-15T09:12:40;5.72;;;4.50;;
22363;SDS011;11349;53.412;-1.328;2024-02-15T09:15:07;6.07;;;4.18;;
22363;SDS011;11349;53.412;-1.328;2024-02-15T09:17:35;6.00;;;4.78;;
22363;SDS011;11349;53.412;-1.328;2024-02-15T09:20:13;6.38;;;5.07;;
22363;SDS011;11349;53.412;-1.328;2024-02-15T09:22:49;6.13;;;4.00;;
22363;SDS011;11349;53.412;-1.328;2024-02-15T09:25:19;5.25;;;3.95;;
22363;SDS011;11349;53.412;-1.328;2024-02-15T09:27:48;7.63;;;4.25;;
22363;SDS011;11349;53.412;-1.328;2024-02-15T09:30:14;8.55;;;4.57;;
22363;SDS011;11349;53.412;-1.328;2024-02-15T09:32:41;7.00;;;4.18;;
22363;SDS011;11349;53.412;-1.328;2024-02-15T09:35:08;6.22;;;3.88;;
22363;SDS011;11349;53.412;-1.328;2024-02-15T09:37:35;7.78;;;4.22;;
22363;SDS011;11349;53.412;-1.328;2024-02-15T09:40:04;5.75;;;3.58;;
22363;SDS011;11349;53.412;-1.328;2024-02-15T09:42:34;7.57;;;4.03;;
22363;SDS011;11349;53.412;-1.328;2024-02-15T09:45:01;6.45;;;4.13;;
22363;SDS011;11349;53.412;-1.328;2024-02-15T09:47:30;7.13;;;4.25;;
22363;SDS011;11349;53.412;-1.328;2024-02-15T09:50:00;6.57;;;3.80;;
22363;SDS011;11349;53.412;-1.328;2024-02-15T09:52:28;5.25;;;2.97;;
22363;SDS011;11349;53.412;-1.328;2024-02-15T09:54:57;7.50;;;3.72;;
22363;SDS011;11349;53.412;-1.328;2024-02-15T09:57:26;5.28;;;3.42;;
22363;SDS011;11349;53.412;-1.328;2024-02-15T09:59:52;5.72;;;2.42;;
22363;SDS011;11349;53.412;-1.328;2024-02-15T10:02:19;5.47;;;3.08;;
22363;SDS011;11349;53.412;-1.328;2024-02-15T10:04:46;5.22;;;2.33;;
22363;SDS011;11349;53.412;-1.328;2024-02-15T10:07:12;4.95;;;2.80;;
22363;SDS011;11349;53.412;-1.328;2024-02-15T10:09:38;5.75;;;2.08;;
22363;SDS011;11349;53.412;-1.328;2024-02-15T10:12:07;3.65;;;1.85;;
22363;SDS011;11349;53.412;-1.328;2024-02-15T10:14:34;4.18;;;1.92;;
22363;SDS011;11349;53.412;-1.328;2024-02-15T10:17:06;4.47;;;2.58;;
22363;SDS011;11349;53.412;-1.328;2024-02-15T10:19:36;7.88;;;2.15;;
22363;SDS011;11349;53.412;-1.328;2024-02-15T10:22:07;3.25;;;1.73;;
22363;SDS011;11349;53.412;-1.328;2024-02-15T10:24:34;5.53;;;1.80;;
22363;SDS011;11349;53.412;-1.328;2024-02-15T10:27:02;7.20;;;2.42;;
22363;SDS011;11349;53.412;-1.328;2024-02-15T10:29:29;6.65;;;2.28;;
22363;SDS011;11349;53.412;-1.328;2024-02-15T10:32:02;4.35;;;2.22;;
22363;SDS011;11349;53.412;-1.328;2024-02-15T10:34:29;4.43;;;2.35;;
22363;SDS011;11349;53.412;-1.328;2024-02-15T10:37:12;5.45;;;2.20;;
22363;SDS011;11349;53.412;-1.328;2024-02-15T10:39:39;4.63;;;2.33;;
22363;SDS011;11349;53.412;-1.328;2024-02-15T10:42:08;6.25;;;2.05;;
22363;SDS011;11349;53.412;-1.328;2024-02-15T10:44:39;5.95;;;1.80;;
22363;SDS011;11349;53.412;-1.328;2024-02-15T10:47:05;5.70;;;2.08;;
22363;SDS011;11349;53.412;-1.328;2024-02-15T10:49:33;4.80;;;2.00;;
22363;SDS011;11349;53.412;-1.328;2024-02-15T10:52:01;6.32;;;2.00;;
22363;SDS011;11349;53.412;-1.328;2024-02-15T10:57:06;5.63;;;1.92;;
22363;SDS011;11349;53.412;-1.328;2024-02-15T10:59:35;8.40;;;2.78;;
22363;SDS011;11349;53.412;-1.328;2024-02-15T11:02:23;6.93;;;2.08;;
22363;SDS011;11349;53.412;-1.328;2024-02-15T11:05:14;6.47;;;2.08;;
22363;SDS011;11349;53.412;-1.328;2024-02-15T11:07:46;8.27;;;3.58;;
22363;SDS011;11349;53.412;-1.328;2024-02-15T11:10:11;7.20;;;2.25;;
22363;SDS011;11349;53.412;-1.328;2024-02-15T11:12:42;6.05;;;2.92;;
22363;SDS011;11349;53.412;-1.328;2024-02-15T11:15:09;6.32;;;2.40;;
22363;SDS011;11349;53.412;-1.328;2024-02-15T11:20:02;8.07;;;2.83;;
22363;SDS011;11349;53.412;-1.328;2024-02-15T11:22:35;5.57;;;2.58;;
22363;SDS011;11349;53.412;-1.328;2024-02-15T11:25:02;10.50;;;2.88;;
22363;SDS011;11349;53.412;-1.328;2024-02-15T11:27:37;7.20;;;2.92;;
22363;SDS011;11349;53.412;-1.328;2024-02-15T11:30:04;8.40;;;2.50;;
22363;SDS011;11349;53.412;-1.328;2024-02-15T11:32:49;9.00;;;2.53;;
22363;SDS011;11349;53.412;-1.328;2024-02-15T11:35:23;10.38;;;2.53;;
22363;SDS011;11349;53.412;-1.328;2024-02-15T11:43:00;8.52;;;2.85;;
22363;SDS011;11349;53.412;-1.328;2024-02-15T11:45:26;6.63;;;2.50;;
22363;SDS011;11349;53.412;-1.328;2024-02-15T11:47:58;7.15;;;2.78;;
22363;SDS011;11349;53.412;-1.328;2024-02-15T11:50:27;6.60;;;2.30;;
22363;SDS011;11349;53.412;-1.328;2024-02-15T11:53:01;6.63;;;2.22;;
22363;SDS011;11349;53.412;-1.328;2024-02-15T11:55:31;6.55;;;1.83;;
22363;SDS011;11349;53.412;-1.328;2024-02-15T11:58:04;5.45;;;2.03;;
22363;SDS011;11349;53.412;-1.328;2024-02-15T12:00:33;7.45;;;2.00;;
22363;SDS011;11349;53.412;-1.328;2024-02-15T12:03:19;9.55;;;2.45;;
22363;SDS011;11349;53.412;-1.328;2024-02-15T12:06:03;3.95;;;1.85;;
22363;SDS011;11349;53.412;-1.328;2024-02-15T12:08:48;6.82;;;2.40;;
22363;SDS011;11349;53.412;-1.328;2024-02-15T12:11:33;6.88;;;1.90;;
22363;SDS011;11349;53.412;-1.328;2024-02-15T12:14:18;5.40;;;1.98;;
22363;SDS011;11349;53.412;-1.328;2024-02-15T12:17:10;5.80;;;1.65;;
22363;SDS011;11349;53.412;-1.328;2024-02-15T12:19:56;6.57;;;1.75;;
22363;SDS011;11349;53.412;-1.328;2024-02-15T12:22:44;5.95;;;1.83;;
22363;SDS011;11349;53.412;-1.328;2024-02-15T12:25:15;5.07;;;1.85;;
22363;SDS011;11349;53.412;-1.328;2024-02-15T12:27:46;7.72;;;1.85;;
22363;SDS011;11349;53.412;-1.328;2024-02-15T12:30:17;6.22;;;2.15;;
22363;SDS011;11349;53.412;-1.328;2024-02-15T12:32:50;3.95;;;1.85;;
22363;SDS011;11349;53.412;-1.328;2024-02-15T12:35:17;4.93;;;1.80;;
22363;SDS011;11349;53.412;-1.328;2024-02-15T12:38:05;7.63;;;2.22;;
22363;SDS011;11349;53.412;-1.328;2024-02-15T12:40:31;5.68;;;2.00;;
22363;SDS011;11349;53.412;-1.328;2024-02-15T12:42:58;7.28;;;1.92;;
22363;SDS011;11349;53.412;-1.328;2024-02-15T12:45:25;5.70;;;1.85;;
22363;SDS011;11349;53.412;-1.328;2024-02-15T12:47:53;8.35;;;1.98;;
22363;SDS011;11349;53.412;-1.328;2024-02-15T12:50:37;5.50;;;1.77;;
22363;SDS011;11349;53.412;-1.328;2024-02-15T12:53:03;7.78;;;2.53;;
22363;SDS011;11349;53.412;-1.328;2024-02-15T12:55:34;4.40;;;1.65;;
22363;SDS011;11349;53.412;-1.328;2024-02-15T12:58:04;4.53;;;1.70;;
22363;SDS011;11349;53.412;-1.328;2024-02-15T13:00:34;7.05;;;2.25;;
22363;SDS011;11349;53.412;-1.328;2024-02-15T13:03:03;4.20;;;1.73;;
22363;SDS011;11349;53.412;-1.328;2024-02-15T13:05:30;5.18;;;1.83;;
22363;SDS011;11349;53.412;-1.328;2024-02-15T13:07:56;6.47;;;1.45;;
22363;SDS011;11349;53.412;-1.328;2024-02-15T13:10:23;9.88;;;1.95;;
22363;SDS011;11349;53.412;-1.328;2024-02-15T13:12:51;7.25;;;1.67;;
22363;SDS011;11349;53.412;-1.328;2024-02-15T13:15:18;7.00;;;1.70;;
22363;SDS011;11349;53.412;-1.328;2024-02-15T13:17:47;4.93;;;1.45;;
22363;SDS011;11349;53.412;-1.328;2024-02-15T13:20:16;3.17;;;0.88;;
22363;SDS011;11349;53.412;-1.328;2024-02-15T13:22:45;4.32;;;1.20;;
22363;SDS011;11349;53.412;-1.328;2024-02-15T13:25:14;4.30;;;1.35;;
22363;SDS011;11349;53.412;-1.328;2024-02-15T13:27:46;5.18;;;1.15;;
22363;SDS011;11349;53.412;-1.328;2024-02-15T13:30:12;2.92;;;1.23;;
22363;SDS011;11349;53.412;-1.328;2024-02-15T13:32:38;6.72;;;1.83;;
22363;SDS011;11349;53.412;-1.328;2024-02-15T13:35:08;3.63;;;1.35;;
22363;SDS011;11349;53.412;-1.328;2024-02-15T13:40:13;6.15;;;2.13;;
22363;SDS011;11349;53.412;-1.328;2024-02-15T13:45:14;5.15;;;0.85;;
22363;SDS011;11349;53.412;-1.328;2024-02-15T13:47:43;4.00;;;1.35;;
22363;SDS011;11349;53.412;-1.328;2024-02-15T13:50:12;4.38;;;1.20;;
22363;SDS011;11349;53.412;-1.328;2024-02-15T13:52:40;3.92;;;1.30;;
22363;SDS011;11349;53.412;-1.328;2024-02-15T13:55:09;5.18;;;1.50;;
22363;SDS011;11349;53.412;-1.328;2024-02-15T13:57:37;7.70;;;1.40;;
22363;SDS011;11349;53.412;-1.328;2024-02-15T14:00:04;5.72;;;1.42;;
22363;SDS011;11349;53.412;-1.328;2024-02-15T14:02:31;4.32;;;1.33;;
22363;SDS011;11349;53.412;-1.328;2024-02-15T14:04:57;3.80;;;1.10;;
22363;SDS011;11349;53.412;-1.328;2024-02-15T14:07:22;5.10;;;1.27;;
22363;SDS011;11349;53.412;-1.328;2024-02-15T14:09:49;4.63;;;1.60;;
22363;SDS011;11349;53.412;-1.328;2024-02-15T14:12:15;4.22;;;1.20;;
22363;SDS011;11349;53.412;-1.328;2024-02-15T14:14:40;3.17;;;1.40;;
22363;SDS011;11349;53.412;-1.328;2024-02-15T14:17:07;4.82;;;1.48;;
22363;SDS011;11349;53.412;-1.328;2024-02-15T14:19:34;7.10;;;1.73;;
22363;SDS011;11349;53.412;-1.328;2024-02-15T14:22:00;5.28;;;1.40;;
22363;SDS011;11349;53.412;-1.328;2024-02-15T14:24:26;5.00;;;1.42;;
22363;SDS011;11349;53.412;-1.328;2024-02-15T14:26:52;4.45;;;1.92;;
22363;SDS011;11349;53.412;-1.328;2024-02-15T14:29:18;5.35;;;1.70;;
22363;SDS011;11349;53.412;-1.328;2024-02-15T14:31:52;4.03;;;1.67;;
22363;SDS011;11349;53.412;-1.328;2024-02-15T14:34:36;4.72;;;1.35;;
22363;SDS011;11349;53.412;-1.328;2024-02-15T14:37:02;4.00;;;1.45;;
22363;SDS011;11349;53.412;-1.328;2024-02-15T14:39:30;3.17;;;1.30;;
22363;SDS011;11349;53.412;-1.328;2024-02-15T14:41:56;6.18;;;1.40;;
22363;SDS011;11349;53.412;-1.328;2024-02-15T14:44:22;7.45;;;1.65;;
22363;SDS011;11349;53.412;-1.328;2024-02-15T14:46:48;6.50;;;1.38;;
22363;SDS011;11349;53.412;-1.328;2024-02-15T14:49:14;4.57;;;1.55;;
22363;SDS011;11349;53.412;-1.328;2024-02-15T14:51:41;5.05;;;1.40;;
22363;SDS011;11349;53.412;-1.328;2024-02-15T14:54:07;4.25;;;1.27;;
22363;SDS011;11349;53.412;-1.328;2024-02-15T14:56:33;6.57;;;1.50;;